Terminal Aerodrome Forecast
Issued by NWS Pittsburgh, PA

Current Version | Previous Version | Graphics & Text | Print | Product List | Glossary On
Versions: 1 2 3 4 5 6 7 8 9 10 11 12 13 14 15 16 17 18 19 20 21 22 23 24 25 26 27 28 29
000
FTUS41 KPBZ 192056 AAB
TAFPIT
TAF AMD
KPIT 192056Z 1921/2024 24006KT P6SM -TSRA BKN040CB
     FM192230 28005KT P6SM SCT040
     FM201000 00000KT 5SM BR SCT008
     FM201400 VRB04KT P6SM SKC=

USA.gov is the U.S. government's official web portal to all federal, state and local government web resources and services.